sensor_id;sensor_type;location;lat;lon;timestamp;pressure;altitude;pressure_sealevel;temperature;humidity
18678;BME280;9469;51.114;13.914;2022-07-29T00:02:24;98935.69;;;17.46;66.11
18678;BME280;9469;51.114;13.914;2022-07-29T00:07:30;98933.75;;;17.58;66.39
18678;BME280;9469;51.114;13.914;2022-07-29T00:12:39;98930.69;;;16.96;67.86
18678;BME280;9469;51.114;13.914;2022-07-29T00:17:45;98933.25;;;17.04;67.82
18678;BME280;9469;51.114;13.914;2022-07-29T00:22:51;98930.88;;;16.55;69.10
18678;BME280;9469;51.114;13.914;2022-07-29T00:27:59;98930.06;;;16.54;69.91
18678;BME280;9469;51.114;13.914;2022-07-29T00:33:04;98923.09;;;16.41;70.60
18678;BME280;9469;51.114;13.914;2022-07-29T00:38:10;98919.91;;;16.27;72.06
18678;BME280;9469;51.114;13.914;2022-07-29T00:43:18;98920.47;;;16.20;72.66
18678;BME280;9469;51.114;13.914;2022-07-29T00:48:23;98905.50;;;16.31;72.04
18678;BME280;9469;51.114;13.914;2022-07-29T00:53:29;98900.78;;;16.28;71.76
18678;BME280;9469;51.114;13.914;2022-07-29T00:58:37;98896.78;;;16.34;71.45
18678;BME280;9469;51.114;13.914;2022-07-29T01:03:43;98885.16;;;16.30;71.62
18678;BME280;9469;51.114;13.914;2022-07-29T01:08:48;98880.00;;;16.25;71.85
18678;BME280;9469;51.114;13.914;2022-07-29T01:13:56;98878.19;;;16.17;72.06
18678;BME280;9469;51.114;13.914;2022-07-29T01:19:08;98883.47;;;15.93;73.48
18678;BME280;9469;51.114;13.914;2022-07-29T01:24:34;98868.91;;;15.82;74.09
18678;BME280;9469;51.114;13.914;2022-07-29T01:29:49;98874.97;;;15.91;73.75
18678;BME280;9469;51.114;13.914;2022-07-29T01:35:03;98864.84;;;16.09;73.33
18678;BME280;9469;51.114;13.914;2022-07-29T01:40:12;98852.78;;;16.15;73.72
18678;BME280;9469;51.114;13.914;2022-07-29T01:45:27;98851.75;;;15.95;74.20
18678;BME280;9469;51.114;13.914;2022-07-29T01:50:38;98846.47;;;15.87;74.90
18678;BME280;9469;51.114;13.914;2022-07-29T01:55:45;98839.91;;;15.96;74.84
18678;BME280;9469;51.114;13.914;2022-07-29T02:00:56;98842.16;;;16.06;74.29
18678;BME280;9469;51.114;13.914;2022-07-29T02:06:02;98844.84;;;16.06;74.34
18678;BME280;9469;51.114;13.914;2022-07-29T02:11:09;98858.94;;;16.15;74.14
18678;BME280;9469;51.114;13.914;2022-07-29T02:16:17;98856.25;;;16.15;75.21
18678;BME280;9469;51.114;13.914;2022-07-29T02:21:26;98841.34;;;15.94;76.43
18678;BME280;9469;51.114;13.914;2022-07-29T02:26:33;98847.31;;;15.78;77.88
18678;BME280;9469;51.114;13.914;2022-07-29T02:31:41;98838.50;;;15.78;77.46
18678;BME280;9469;51.114;13.914;2022-07-29T02:36:49;98842.56;;;15.63;77.06
18678;BME280;9469;51.114;13.914;2022-07-29T02:41:59;98843.97;;;15.82;76.29
18678;BME280;9469;51.114;13.914;2022-07-29T02:47:13;98839.34;;;15.58;77.24
18678;BME280;9469;51.114;13.914;2022-07-29T02:52:24;98841.50;;;15.44;77.83
18678;BME280;9469;51.114;13.914;2022-07-29T02:57:34;98840.88;;;15.38;78.11
18678;BME280;9469;51.114;13.914;2022-07-29T03:03:00;98838.91;;;15.27;79.09
18678;BME280;9469;51.114;13.914;2022-07-29T03:08:10;98844.34;;;15.59;77.77
18678;BME280;9469;51.114;13.914;2022-07-29T03:13:15;98840.22;;;15.62;77.62
18678;BME280;9469;51.114;13.914;2022-07-29T03:18:23;98842.31;;;15.36;78.85
18678;BME280;9469;51.114;13.914;2022-07-29T03:23:29;98847.22;;;15.34;79.16
18678;BME280;9469;51.114;13.914;2022-07-29T03:28:37;98846.97;;;15.06;80.49
18678;BME280;9469;51.114;13.914;2022-07-29T03:33:45;98841.44;;;15.02;80.36
18678;BME280;9469;51.114;13.914;2022-07-29T03:38:52;98836.00;;;15.20;80.66
18678;BME280;9469;51.114;13.914;2022-07-29T03:43:58;98830.53;;;15.07;80.56
18678;BME280;9469;51.114;13.914;2022-07-29T03:49:06;98827.69;;;15.33;80.34
18678;BME280;9469;51.114;13.914;2022-07-29T03:54:12;98828.66;;;15.49;79.39
18678;BME280;9469;51.114;13.914;2022-07-29T03:59:19;98820.09;;;15.56;79.11
18678;BME280;9469;51.114;13.914;2022-07-29T04:04:28;98819.50;;;15.50;79.18
18678;BME280;9469;51.114;13.914;2022-07-29T04:09:33;98824.69;;;15.55;79.57
18678;BME280;9469;51.114;13.914;2022-07-29T04:14:38;98825.28;;;15.73;78.72
18678;BME280;9469;51.114;13.914;2022-07-29T04:19:46;98824.09;;;15.83;77.98
18678;BME280;9469;51.114;13.914;2022-07-29T04:24:51;98830.31;;;16.07;77.61
18678;BME280;9469;51.114;13.914;2022-07-29T04:29:59;98830.91;;;16.25;76.88
18678;BME280;9469;51.114;13.914;2022-07-29T04:35:08;98830.22;;;16.40;76.31
18678;BME280;9469;51.114;13.914;2022-07-29T04:40:13;98837.53;;;16.52;75.51
18678;BME280;9469;51.114;13.914;2022-07-29T04:45:18;98839.06;;;16.40;76.01
18678;BME280;9469;51.114;13.914;2022-07-29T04:50:26;98826.16;;;16.67;75.54
18678;BME280;9469;51.114;13.914;2022-07-29T04:55:31;98831.03;;;16.77;75.21
18678;BME280;9469;51.114;13.914;2022-07-29T05:00:39;98826.69;;;16.84;76.81
18678;BME280;9469;51.114;13.914;2022-07-29T05:05:47;98828.09;;;16.94;76.32
18678;BME280;9469;51.114;13.914;2022-07-29T05:10:52;98822.22;;;17.28;76.94
18678;BME280;9469;51.114;13.914;2022-07-29T05:15:57;98833.91;;;17.08;76.57
18678;BME280;9469;51.114;13.914;2022-07-29T05:21:06;98825.97;;;18.53;70.78
18678;BME280;9469;51.114;13.914;2022-07-29T05:26:11;98813.97;;;18.51;70.75
18678;BME280;9469;51.114;13.914;2022-07-29T05:31:16;98815.53;;;19.98;67.48
18678;BME280;9469;51.114;13.914;2022-07-29T05:36:24;98811.94;;;19.71;67.79
18678;BME280;9469;51.114;13.914;2022-07-29T05:41:31;98807.94;;;20.75;65.40
18678;BME280;9469;51.114;13.914;2022-07-29T05:46:37;98815.19;;;20.97;64.40
18678;BME280;9469;51.114;13.914;2022-07-29T05:51:45;98823.75;;;20.73;64.32
18678;BME280;9469;51.114;13.914;2022-07-29T05:56:51;98820.94;;;19.98;67.44
18678;BME280;9469;51.114;13.914;2022-07-29T06:01:56;98825.31;;;19.64;69.98
18678;BME280;9469;51.114;13.914;2022-07-29T06:07:04;98820.19;;;19.59;71.95
18678;BME280;9469;51.114;13.914;2022-07-29T06:12:09;98821.69;;;19.76;72.22
18678;BME280;9469;51.114;13.914;2022-07-29T06:17:15;98826.03;;;20.03;71.58
18678;BME280;9469;51.114;13.914;2022-07-29T06:22:23;98829.31;;;19.93;71.53
18678;BME280;9469;51.114;13.914;2022-07-29T06:27:28;98820.59;;;20.22;70.53
18678;BME280;9469;51.114;13.914;2022-07-29T06:32:35;98831.06;;;20.04;71.15
18678;BME280;9469;51.114;13.914;2022-07-29T06:37:46;98832.84;;;20.39;70.40
18678;BME280;9469;51.114;13.914;2022-07-29T06:42:58;98836.97;;;20.10;71.06
18678;BME280;9469;51.114;13.914;2022-07-29T06:48:04;98837.28;;;20.28;71.09
18678;BME280;9469;51.114;13.914;2022-07-29T06:53:12;98829.69;;;20.86;69.54
18678;BME280;9469;51.114;13.914;2022-07-29T06:58:18;98834.66;;;20.80;69.71
18678;BME280;9469;51.114;13.914;2022-07-29T07:03:30;98829.25;;;20.80;68.10
18678;BME280;9469;51.114;13.914;2022-07-29T07:08:37;98833.69;;;21.21;67.29
18678;BME280;9469;51.114;13.914;2022-07-29T07:13:45;98841.59;;;21.33;66.12
18678;BME280;9469;51.114;13.914;2022-07-29T07:18:52;98843.44;;;21.89;65.27
18678;BME280;9469;51.114;13.914;2022-07-29T07:24:00;98842.28;;;21.57;64.84
18678;BME280;9469;51.114;13.914;2022-07-29T07:29:07;98840.75;;;22.29;63.81
18678;BME280;9469;51.114;13.914;2022-07-29T07:34:13;98834.94;;;22.74;62.85
18678;BME280;9469;51.114;13.914;2022-07-29T07:39:31;98831.66;;;23.06;62.50
18678;BME280;9469;51.114;13.914;2022-07-29T07:44:36;98830.47;;;23.03;62.03
18678;BME280;9469;51.114;13.914;2022-07-29T07:50:02;98826.66;;;23.15;61.75
18678;BME280;9469;51.114;13.914;2022-07-29T07:55:10;98822.94;;;23.40;61.19
18678;BME280;9469;51.114;13.914;2022-07-29T08:00:18;98821.44;;;23.53;60.87
18678;BME280;9469;51.114;13.914;2022-07-29T08:05:24;98821.38;;;23.36;60.62
18678;BME280;9469;51.114;13.914;2022-07-29T08:10:32;98815.34;;;23.99;59.42
18678;BME280;9469;51.114;13.914;2022-07-29T08:16:09;98816.84;;;23.93;59.76
18678;BME280;9469;51.114;13.914;2022-07-29T08:21:17;98823.53;;;24.34;58.62
18678;BME280;9469;51.114;13.914;2022-07-29T08:26:25;98813.44;;;24.20;59.35
18678;BME280;9469;51.114;13.914;2022-07-29T08:31:31;98815.72;;;23.94;59.47
18678;BME280;9469;51.114;13.914;2022-07-29T08:36:37;98801.38;;;24.74;58.47
18678;BME280;9469;51.114;13.914;2022-07-29T08:41:48;98792.03;;;24.97;58.42
18678;BME280;9469;51.114;13.914;2022-07-29T08:46:58;98786.47;;;25.32;57.89
18678;BME280;9469;51.114;13.914;2022-07-29T08:52:06;98796.00;;;25.75;57.13
18678;BME280;9469;51.114;13.914;2022-07-29T08:57:16;98794.22;;;26.16;55.09
18678;BME280;9469;51.114;13.914;2022-07-29T09:02:22;98796.78;;;26.78;54.95
18678;BME280;9469;51.114;13.914;2022-07-29T09:07:29;98788.78;;;27.32;53.90
18678;BME280;9469;51.114;13.914;2022-07-29T09:12:38;98784.34;;;27.11;53.14
18678;BME280;9469;51.114;13.914;2022-07-29T09:17:45;98786.13;;;27.58;52.67
18678;BME280;9469;51.114;13.914;2022-07-29T09:22:52;98788.94;;;26.40;53.94
18678;BME280;9469;51.114;13.914;2022-07-29T09:28:08;98769.44;;;27.19;52.90
18678;BME280;9469;51.114;13.914;2022-07-29T09:33:13;98768.66;;;28.06;52.32
18678;BME280;9469;51.114;13.914;2022-07-29T09:38:18;98763.47;;;27.28;52.57
18678;BME280;9469;51.114;13.914;2022-07-29T09:43:26;98760.28;;;27.02;53.29
18678;BME280;9469;51.114;13.914;2022-07-29T09:48:31;98761.53;;;26.94;52.89
18678;BME280;9469;51.114;13.914;2022-07-29T09:53:39;98766.28;;;26.87;52.65
18678;BME280;9469;51.114;13.914;2022-07-29T09:58:47;98761.13;;;26.96;52.33
18678;BME280;9469;51.114;13.914;2022-07-29T10:03:53;98762.75;;;26.90;52.91
18678;BME280;9469;51.114;13.914;2022-07-29T10:09:09;98756.56;;;27.20;52.28
18678;BME280;9469;51.114;13.914;2022-07-29T10:14:17;98770.97;;;27.54;52.21
18678;BME280;9469;51.114;13.914;2022-07-29T10:19:23;98761.97;;;27.84;51.23
18678;BME280;9469;51.114;13.914;2022-07-29T10:24:30;98764.53;;;27.94;51.53
18678;BME280;9469;51.114;13.914;2022-07-29T10:29:39;98762.97;;;28.66;50.35
18678;BME280;9469;51.114;13.914;2022-07-29T10:34:57;98755.91;;;29.08;49.66
18678;BME280;9469;51.114;13.914;2022-07-29T10:40:14;98746.00;;;29.34;48.88
18678;BME280;9469;51.114;13.914;2022-07-29T10:45:35;98749.78;;;27.31;51.77
18678;BME280;9469;51.114;13.914;2022-07-29T10:50:52;98745.81;;;27.93;51.53
18678;BME280;9469;51.114;13.914;2022-07-29T10:55:57;98756.22;;;27.14;52.73
18678;BME280;9469;51.114;13.914;2022-07-29T11:01:29;98745.84;;;27.32;52.55
18678;BME280;9469;51.114;13.914;2022-07-29T11:07:06;98758.38;;;27.87;51.84
18678;BME280;9469;51.114;13.914;2022-07-29T11:12:48;98750.00;;;27.74;51.75
18678;BME280;9469;51.114;13.914;2022-07-29T11:18:06;98739.13;;;27.94;51.79
18678;BME280;9469;51.114;13.914;2022-07-29T11:23:23;98741.91;;;27.37;52.94
18678;BME280;9469;51.114;13.914;2022-07-29T11:28:36;98741.56;;;27.61;52.71
18678;BME280;9469;51.114;13.914;2022-07-29T11:33:47;98737.72;;;27.59;52.67
18678;BME280;9469;51.114;13.914;2022-07-29T11:39:28;98735.25;;;27.08;53.94
18678;BME280;9469;51.114;13.914;2022-07-29T11:44:53;98729.94;;;27.27;53.55
18678;BME280;9469;51.114;13.914;2022-07-29T11:50:12;98729.53;;;27.25;53.82
18678;BME280;9469;51.114;13.914;2022-07-29T11:55:27;98730.97;;;27.40;53.83
18678;BME280;9469;51.114;13.914;2022-07-29T12:00:36;98725.53;;;27.90;52.55
18678;BME280;9469;51.114;13.914;2022-07-29T12:05:44;98717.91;;;28.05;51.74
18678;BME280;9469;51.114;13.914;2022-07-29T12:10:52;98725.50;;;27.40;53.32
18678;BME280;9469;51.114;13.914;2022-07-29T12:15:57;98718.78;;;27.15;53.67
18678;BME280;9469;51.114;13.914;2022-07-29T12:21:05;98725.66;;;27.26;54.11
18678;BME280;9469;51.114;13.914;2022-07-29T12:26:13;98722.19;;;27.52;53.56
18678;BME280;9469;51.114;13.914;2022-07-29T12:31:27;98711.94;;;27.60;53.03
18678;BME280;9469;51.114;13.914;2022-07-29T12:36:48;98700.34;;;28.02;52.80
18678;BME280;9469;51.114;13.914;2022-07-29T12:41:54;98708.09;;;28.07;52.93
18678;BME280;9469;51.114;13.914;2022-07-29T12:47:05;98710.38;;;27.86;53.25
18678;BME280;9469;51.114;13.914;2022-07-29T12:52:29;98702.66;;;27.54;53.38
18678;BME280;9469;51.114;13.914;2022-07-29T12:57:44;98711.47;;;27.35;54.06
18678;BME280;9469;51.114;13.914;2022-07-29T13:02:55;98703.28;;;27.35;54.14
18678;BME280;9469;51.114;13.914;2022-07-29T13:08:12;98687.59;;;27.69;53.96
18678;BME280;9469;51.114;13.914;2022-07-29T13:13:22;98687.41;;;27.26;54.15
18678;BME280;9469;51.114;13.914;2022-07-29T13:18:28;98679.66;;;27.78;53.47
18678;BME280;9469;51.114;13.914;2022-07-29T13:23:36;98686.72;;;27.19;53.57
18678;BME280;9469;51.114;13.914;2022-07-29T13:28:44;98674.56;;;27.53;53.07
18678;BME280;9469;51.114;13.914;2022-07-29T13:33:49;98679.97;;;27.57;53.07
18678;BME280;9469;51.114;13.914;2022-07-29T13:38:57;98676.06;;;28.08;52.66
18678;BME280;9469;51.114;13.914;2022-07-29T13:44:04;98665.69;;;27.73;53.45
18678;BME280;9469;51.114;13.914;2022-07-29T13:49:09;98667.63;;;27.99;52.84
18678;BME280;9469;51.114;13.914;2022-07-29T13:54:17;98670.03;;;27.70;53.31
18678;BME280;9469;51.114;13.914;2022-07-29T13:59:22;98674.66;;;28.00;53.07
18678;BME280;9469;51.114;13.914;2022-07-29T14:04:28;98666.56;;;27.89;52.90
18678;BME280;9469;51.114;13.914;2022-07-29T14:09:36;98657.13;;;28.40;51.99
18678;BME280;9469;51.114;13.914;2022-07-29T14:14:42;98659.03;;;27.73;53.24
18678;BME280;9469;51.114;13.914;2022-07-29T14:19:48;98654.72;;;28.22;52.09
18678;BME280;9469;51.114;13.914;2022-07-29T14:24:55;98643.31;;;29.58;50.85
18678;BME280;9469;51.114;13.914;2022-07-29T14:30:15;98639.69;;;28.30;52.27
18678;BME280;9469;51.114;13.914;2022-07-29T14:35:20;98644.91;;;28.45;51.37
18678;BME280;9469;51.114;13.914;2022-07-29T14:40:28;98646.69;;;28.74;51.12
18678;BME280;9469;51.114;13.914;2022-07-29T14:45:33;98640.19;;;28.45;51.65
18678;BME280;9469;51.114;13.914;2022-07-29T14:50:38;98637.63;;;28.38;52.58
18678;BME280;9469;51.114;13.914;2022-07-29T14:55:45;98637.69;;;28.11;52.76
18678;BME280;9469;51.114;13.914;2022-07-29T15:00:51;98637.31;;;28.32;52.96
18678;BME280;9469;51.114;13.914;2022-07-29T15:05:56;98646.38;;;27.83;53.69
18678;BME280;9469;51.114;13.914;2022-07-29T15:11:04;98636.06;;;28.57;51.90
18678;BME280;9469;51.114;13.914;2022-07-29T15:16:09;98636.81;;;28.61;52.13
18678;BME280;9469;51.114;13.914;2022-07-29T15:21:14;98629.97;;;28.49;52.13
18678;BME280;9469;51.114;13.914;2022-07-29T15:26:22;98634.03;;;28.41;52.16
18678;BME280;9469;51.114;13.914;2022-07-29T15:31:27;98623.75;;;28.06;52.69
18678;BME280;9469;51.114;13.914;2022-07-29T15:36:32;98636.34;;;27.77;52.60
18678;BME280;9469;51.114;13.914;2022-07-29T15:41:57;98628.13;;;27.53;52.75
18678;BME280;9469;51.114;13.914;2022-07-29T15:47:04;98619.47;;;27.58;53.15
18678;BME280;9469;51.114;13.914;2022-07-29T15:52:11;98625.75;;;27.29;53.55
18678;BME280;9469;51.114;13.914;2022-07-29T15:57:19;98619.47;;;27.32;53.44
18678;BME280;9469;51.114;13.914;2022-07-29T16:02:25;98605.56;;;27.49;52.94
18678;BME280;9469;51.114;13.914;2022-07-29T16:07:30;98609.47;;;27.22;52.65
18678;BME280;9469;51.114;13.914;2022-07-29T16:12:41;98610.78;;;27.40;52.50
18678;BME280;9469;51.114;13.914;2022-07-29T16:17:46;98607.69;;;27.38;52.69
18678;BME280;9469;51.114;13.914;2022-07-29T16:22:51;98598.19;;;27.46;52.85
18678;BME280;9469;51.114;13.914;2022-07-29T16:27:58;98590.44;;;27.41;52.72
18678;BME280;9469;51.114;13.914;2022-07-29T16:33:04;98598.13;;;27.23;53.08
18678;BME280;9469;51.114;13.914;2022-07-29T16:38:09;98596.00;;;27.34;52.85
18678;BME280;9469;51.114;13.914;2022-07-29T16:43:17;98591.00;;;27.29;53.05
18678;BME280;9469;51.114;13.914;2022-07-29T16:48:22;98582.34;;;27.34;53.32
18678;BME280;9469;51.114;13.914;2022-07-29T16:53:27;98588.31;;;27.26;52.61
18678;BME280;9469;51.114;13.914;2022-07-29T16:58:34;98588.38;;;27.22;53.23
18678;BME280;9469;51.114;13.914;2022-07-29T17:03:44;98584.00;;;27.28;53.26
18678;BME280;9469;51.114;13.914;2022-07-29T17:09:02;98589.41;;;27.05;53.76
18678;BME280;9469;51.114;13.914;2022-07-29T17:14:10;98585.31;;;26.93;53.74
18678;BME280;9469;51.114;13.914;2022-07-29T17:19:15;98583.13;;;27.08;53.71
18678;BME280;9469;51.114;13.914;2022-07-29T17:24:22;98580.03;;;26.79;54.48
18678;BME280;9469;51.114;13.914;2022-07-29T17:29:30;98584.97;;;26.88;54.57
18678;BME280;9469;51.114;13.914;2022-07-29T17:34:35;98586.63;;;26.82;54.86
18678;BME280;9469;51.114;13.914;2022-07-29T17:39:41;98592.31;;;26.61;55.41
18678;BME280;9469;51.114;13.914;2022-07-29T17:44:49;98586.22;;;26.50;55.66
18678;BME280;9469;51.114;13.914;2022-07-29T17:49:54;98592.63;;;26.36;56.14
18678;BME280;9469;51.114;13.914;2022-07-29T17:54:59;98582.56;;;26.29;56.84
18678;BME280;9469;51.114;13.914;2022-07-29T18:00:08;98592.91;;;26.11;57.07
18678;BME280;9469;51.114;13.914;2022-07-29T18:05:13;98597.59;;;26.07;57.03
18678;BME280;9469;51.114;13.914;2022-07-29T18:10:18;98583.03;;;25.84;57.78
18678;BME280;9469;51.114;13.914;2022-07-29T18:15:25;98581.06;;;25.84;57.93
18678;BME280;9469;51.114;13.914;2022-07-29T18:20:31;98587.91;;;25.62;58.68
18678;BME280;9469;51.114;13.914;2022-07-29T18:25:36;98591.09;;;25.50;59.03
18678;BME280;9469;51.114;13.914;2022-07-29T18:30:44;98595.84;;;25.35;59.98
18678;BME280;9469;51.114;13.914;2022-07-29T18:35:51;98591.22;;;25.29;59.76
18678;BME280;9469;51.114;13.914;2022-07-29T18:41:12;98590.91;;;25.20;59.84
18678;BME280;9469;51.114;13.914;2022-07-29T18:46:20;98596.75;;;25.18;60.06
18678;BME280;9469;51.114;13.914;2022-07-29T18:51:27;98589.81;;;25.07;60.06
18678;BME280;9469;51.114;13.914;2022-07-29T18:56:33;98593.03;;;24.91;60.30
18678;BME280;9469;51.114;13.914;2022-07-29T19:01:41;98588.44;;;24.77;60.29
18678;BME280;9469;51.114;13.914;2022-07-29T19:06:46;98597.00;;;24.65;60.49
18678;BME280;9469;51.114;13.914;2022-07-29T19:11:51;98602.94;;;24.43;61.20
18678;BME280;9469;51.114;13.914;2022-07-29T19:17:01;98602.56;;;24.34;61.28
18678;BME280;9469;51.114;13.914;2022-07-29T19:22:06;98607.66;;;24.28;61.52
18678;BME280;9469;51.114;13.914;2022-07-29T19:27:11;98622.41;;;24.23;62.15
18678;BME280;9469;51.114;13.914;2022-07-29T19:32:20;98629.00;;;24.15;61.90
18678;BME280;9469;51.114;13.914;2022-07-29T19:37:26;98630.19;;;24.04;62.81
18678;BME280;9469;51.114;13.914;2022-07-29T19:42:31;98625.16;;;23.92;63.34
18678;BME280;9469;51.114;13.914;2022-07-29T19:47:39;98619.72;;;23.85;63.19
18678;BME280;9469;51.114;13.914;2022-07-29T19:52:45;98624.00;;;23.72;64.03
18678;BME280;9469;51.114;13.914;2022-07-29T19:57:50;98636.03;;;23.71;64.02
18678;BME280;9469;51.114;13.914;2022-07-29T20:02:58;98633.69;;;23.55;64.68
18678;BME280;9469;51.114;13.914;2022-07-29T20:08:04;98644.56;;;23.44;65.16
18678;BME280;9469;51.114;13.914;2022-07-29T20:13:10;98649.22;;;23.40;65.56
18678;BME280;9469;51.114;13.914;2022-07-29T20:18:18;98648.78;;;23.31;66.02
18678;BME280;9469;51.114;13.914;2022-07-29T20:23:23;98649.53;;;23.32;66.40
18678;BME280;9469;51.114;13.914;2022-07-29T20:28:28;98656.09;;;23.13;66.82
18678;BME280;9469;51.114;13.914;2022-07-29T20:33:35;98654.50;;;23.02;67.40
18678;BME280;9469;51.114;13.914;2022-07-29T20:38:42;98654.50;;;22.95;67.66
18678;BME280;9469;51.114;13.914;2022-07-29T20:43:47;98647.47;;;22.87;68.44
18678;BME280;9469;51.114;13.914;2022-07-29T20:48:56;98643.22;;;22.89;68.53
18678;BME280;9469;51.114;13.914;2022-07-29T20:54:01;98642.81;;;22.80;68.95
18678;BME280;9469;51.114;13.914;2022-07-29T20:59:08;98641.19;;;22.65;69.83
18678;BME280;9469;51.114;13.914;2022-07-29T21:04:15;98641.91;;;22.58;70.47
18678;BME280;9469;51.114;13.914;2022-07-29T21:09:20;98636.06;;;22.53;70.94
18678;BME280;9469;51.114;13.914;2022-07-29T21:14:25;98647.25;;;22.44;71.34
18678;BME280;9469;51.114;13.914;2022-07-29T21:19:51;98658.53;;;22.50;71.29
18678;BME280;9469;51.114;13.914;2022-07-29T21:24:56;98648.25;;;22.15;72.69
18678;BME280;9469;51.114;13.914;2022-07-29T21:30:03;98647.47;;;22.14;73.05
18678;BME280;9469;51.114;13.914;2022-07-29T21:35:11;98652.72;;;21.86;74.88
18678;BME280;9469;51.114;13.914;2022-07-29T21:40:36;98663.22;;;21.98;74.84
18678;BME280;9469;51.114;13.914;2022-07-29T21:45:41;98663.22;;;21.98;75.36
18678;BME280;9469;51.114;13.914;2022-07-29T21:50:52;98651.53;;;21.87;75.80
18678;BME280;9469;51.114;13.914;2022-07-29T21:55:57;98654.63;;;21.86;76.36
18678;BME280;9469;51.114;13.914;2022-07-29T22:01:02;98650.53;;;21.62;77.16
18678;BME280;9469;51.114;13.914;2022-07-29T22:06:10;98653.59;;;21.57;77.58
18678;BME280;9469;51.114;13.914;2022-07-29T22:11:19;98653.66;;;21.64;77.42
18678;BME280;9469;51.114;13.914;2022-07-29T22:16:24;98659.75;;;21.54;77.86
18678;BME280;9469;51.114;13.914;2022-07-29T22:21:32;98642.06;;;21.67;78.00
18678;BME280;9469;51.114;13.914;2022-07-29T22:26:37;98653.28;;;21.66;78.39
18678;BME280;9469;51.114;13.914;2022-07-29T22:31:42;98646.75;;;21.74;77.82
18678;BME280;9469;51.114;13.914;2022-07-29T22:36:50;98642.31;;;21.48;79.41
18678;BME280;9469;51.114;13.914;2022-07-29T22:41:55;98648.72;;;21.33;80.09
18678;BME280;9469;51.114;13.914;2022-07-29T22:47:00;98648.25;;;21.64;78.25
18678;BME280;9469;51.114;13.914;2022-07-29T22:52:07;98645.53;;;21.24;80.56
18678;BME280;9469;51.114;13.914;2022-07-29T22:57:15;98642.13;;;21.30;80.69
18678;BME280;9469;51.114;13.914;2022-07-29T23:02:23;98648.84;;;21.07;82.12
18678;BME280;9469;51.114;13.914;2022-07-29T23:07:33;98637.31;;;21.13;81.88
18678;BME280;9469;51.114;13.914;2022-07-29T23:12:40;98637.22;;;21.43;80.90
18678;BME280;9469;51.114;13.914;2022-07-29T23:17:46;98631.34;;;21.34;81.23
18678;BME280;9469;51.114;13.914;2022-07-29T23:22:53;98619.81;;;21.40;81.25
18678;BME280;9469;51.114;13.914;2022-07-29T23:27:59;98625.59;;;21.39;81.15
18678;BME280;9469;51.114;13.914;2022-07-29T23:33:04;98611.13;;;21.21;82.00
18678;BME280;9469;51.114;13.914;2022-07-29T23:38:11;98620.59;;;21.41;81.01
18678;BME280;9469;51.114;13.914;2022-07-29T23:43:16;98611.19;;;21.28;81.59
18678;BME280;9469;51.114;13.914;2022-07-29T23:48:21;98607.31;;;21.29;81.20
18678;BME280;9469;51.114;13.914;2022-07-29T23:53:29;98606.25;;;21.37;81.39
18678;BME280;9469;51.114;13.914;2022-07-29T23:58:34;98603.00;;;21.21;82.15
